sensor_id;sensor_type;location;lat;lon;timestamp;temperature;humidity
39675;DHT22;27790;50.840;4.386;2023-06-22T00:00:46;22.80;90.00
39675;DHT22;27790;50.840;4.386;2023-06-22T00:03:12;22.80;88.80
39675;DHT22;27790;50.840;4.386;2023-06-22T00:05:38;22.90;88.70
39675;DHT22;27790;50.840;4.386;2023-06-22T00:08:04;22.90;87.90
39675;DHT22;27790;50.840;4.386;2023-06-22T00:10:32;22.90;87.50
39675;DHT22;27790;50.840;4.386;2023-06-22T00:12:58;22.90;87.70
39675;DHT22;27790;50.840;4.386;2023-06-22T00:15:24;22.90;88.60
39675;DHT22;27790;50.840;4.386;2023-06-22T00:17:50;22.90;88.60
39675;DHT22;27790;50.840;4.386;2023-06-22T00:20:16;22.90;88.40
39675;DHT22;27790;50.840;4.386;2023-06-22T00:22:46;22.90;88.40
39675;DHT22;27790;50.840;4.386;2023-06-22T00:25:13;22.90;88.60
39675;DHT22;27790;50.840;4.386;2023-06-22T00:27:39;22.90;88.70
39675;DHT22;27790;50.840;4.386;2023-06-22T00:30:05;22.90;88.90
39675;DHT22;27790;50.840;4.386;2023-06-22T00:32:31;22.80;89.40
39675;DHT22;27790;50.840;4.386;2023-06-22T00:34:56;22.80;90.00
39675;DHT22;27790;50.840;4.386;2023-06-22T00:37:22;22.80;89.60
39675;DHT22;27790;50.840;4.386;2023-06-22T00:39:51;22.90;90.00
39675;DHT22;27790;50.840;4.386;2023-06-22T00:42:17;22.90;89.60
39675;DHT22;27790;50.840;4.386;2023-06-22T00:44:43;22.90;89.90
39675;DHT22;27790;50.840;4.386;2023-06-22T00:47:11;22.90;89.60
39675;DHT22;27790;50.840;4.386;2023-06-22T00:49:38;22.90;89.50
39675;DHT22;27790;50.840;4.386;2023-06-22T00:52:05;22.90;89.80
39675;DHT22;27790;50.840;4.386;2023-06-22T00:54:35;22.90;89.80
39675;DHT22;27790;50.840;4.386;2023-06-22T00:57:01;23.00;89.80
39675;DHT22;27790;50.840;4.386;2023-06-22T00:59:27;23.00;90.00
39675;DHT22;27790;50.840;4.386;2023-06-22T01:01:53;22.90;89.70
39675;DHT22;27790;50.840;4.386;2023-06-22T01:04:19;22.90;89.80
39675;DHT22;27790;50.840;4.386;2023-06-22T01:06:58;22.80;90.00
39675;DHT22;27790;50.840;4.386;2023-06-22T01:09:31;22.80;90.10
39675;DHT22;27790;50.840;4.386;2023-06-22T01:12:01;22.80;90.10
39675;DHT22;27790;50.840;4.386;2023-06-22T01:14:43;22.80;90.10
39675;DHT22;27790;50.840;4.386;2023-06-22T01:17:12;22.80;90.30
39675;DHT22;27790;50.840;4.386;2023-06-22T01:19:54;22.80;90.40
39675;DHT22;27790;50.840;4.386;2023-06-22T01:22:25;22.70;90.30
39675;DHT22;27790;50.840;4.386;2023-06-22T01:30:18;22.60;90.70
39675;DHT22;27790;50.840;4.386;2023-06-22T01:32:44;22.70;90.80
39675;DHT22;27790;50.840;4.386;2023-06-22T01:35:12;22.70;91.00
39675;DHT22;27790;50.840;4.386;2023-06-22T01:37:38;22.70;91.00
39675;DHT22;27790;50.840;4.386;2023-06-22T01:40:05;22.60;90.90
39675;DHT22;27790;50.840;4.386;2023-06-22T01:42:31;22.50;91.10
39675;DHT22;27790;50.840;4.386;2023-06-22T01:44:58;22.40;91.20
39675;DHT22;27790;50.840;4.386;2023-06-22T01:47:25;22.40;91.30
39675;DHT22;27790;50.840;4.386;2023-06-22T01:49:51;22.40;91.30
39675;DHT22;27790;50.840;4.386;2023-06-22T01:52:17;22.40;91.30
39675;DHT22;27790;50.840;4.386;2023-06-22T01:54:43;22.40;91.40
39675;DHT22;27790;50.840;4.386;2023-06-22T01:57:09;22.40;91.50
39675;DHT22;27790;50.840;4.386;2023-06-22T01:59:49;22.40;91.60
39675;DHT22;27790;50.840;4.386;2023-06-22T02:02:19;22.30;91.60
39675;DHT22;27790;50.840;4.386;2023-06-22T02:04:59;22.30;91.70
39675;DHT22;27790;50.840;4.386;2023-06-22T02:07:31;22.30;91.70
39675;DHT22;27790;50.840;4.386;2023-06-22T02:09:59;22.30;91.60
39675;DHT22;27790;50.840;4.386;2023-06-22T02:12:26;22.30;91.80
39675;DHT22;27790;50.840;4.386;2023-06-22T02:14:53;22.30;91.60
39675;DHT22;27790;50.840;4.386;2023-06-22T02:17:19;22.20;91.70
39675;DHT22;27790;50.840;4.386;2023-06-22T02:19:45;22.10;91.80
39675;DHT22;27790;50.840;4.386;2023-06-22T02:22:11;22.10;91.80
39675;DHT22;27790;50.840;4.386;2023-06-22T02:24:38;22.10;91.90
39675;DHT22;27790;50.840;4.386;2023-06-22T02:27:03;22.10;91.80
39675;DHT22;27790;50.840;4.386;2023-06-22T02:29:31;22.00;91.80
39675;DHT22;27790;50.840;4.386;2023-06-22T02:31:56;21.90;92.10
39675;DHT22;27790;50.840;4.386;2023-06-22T02:34:22;21.90;91.90
39675;DHT22;27790;50.840;4.386;2023-06-22T02:36:48;21.80;92.00
39675;DHT22;27790;50.840;4.386;2023-06-22T02:39:25;21.80;92.10
39675;DHT22;27790;50.840;4.386;2023-06-22T02:41:54;21.80;92.00
39675;DHT22;27790;50.840;4.386;2023-06-22T02:44:20;21.70;92.00
39675;DHT22;27790;50.840;4.386;2023-06-22T02:46:47;21.70;92.20
39675;DHT22;27790;50.840;4.386;2023-06-22T02:49:13;21.60;92.20
39675;DHT22;27790;50.840;4.386;2023-06-22T02:51:41;21.60;92.20
39675;DHT22;27790;50.840;4.386;2023-06-22T02:54:07;21.70;92.20
39675;DHT22;27790;50.840;4.386;2023-06-22T02:56:32;21.60;92.20
39675;DHT22;27790;50.840;4.386;2023-06-22T02:58:58;21.70;92.30
39675;DHT22;27790;50.840;4.386;2023-06-22T03:01:30;21.60;92.30
39675;DHT22;27790;50.840;4.386;2023-06-22T03:04:06;21.60;92.30
39675;DHT22;27790;50.840;4.386;2023-06-22T03:06:32;21.50;92.40
39675;DHT22;27790;50.840;4.386;2023-06-22T03:09:05;21.50;92.40
39675;DHT22;27790;50.840;4.386;2023-06-22T03:11:32;21.50;92.60
39675;DHT22;27790;50.840;4.386;2023-06-22T03:13:58;21.40;92.70
39675;DHT22;27790;50.840;4.386;2023-06-22T03:16:23;21.40;92.60
39675;DHT22;27790;50.840;4.386;2023-06-22T03:18:49;21.40;92.60
39675;DHT22;27790;50.840;4.386;2023-06-22T03:21:15;21.40;92.90
39675;DHT22;27790;50.840;4.386;2023-06-22T03:23:42;21.40;93.10
39675;DHT22;27790;50.840;4.386;2023-06-22T03:26:09;21.30;92.70
39675;DHT22;27790;50.840;4.386;2023-06-22T03:28:35;21.40;92.60
39675;DHT22;27790;50.840;4.386;2023-06-22T03:31:00;21.30;92.60
39675;DHT22;27790;50.840;4.386;2023-06-22T03:33:26;21.40;92.60
39675;DHT22;27790;50.840;4.386;2023-06-22T03:35:52;21.40;92.50
39675;DHT22;27790;50.840;4.386;2023-06-22T03:38:17;21.50;92.70
39675;DHT22;27790;50.840;4.386;2023-06-22T03:40:43;21.60;92.40
39675;DHT22;27790;50.840;4.386;2023-06-22T03:43:09;21.60;92.30
39675;DHT22;27790;50.840;4.386;2023-06-22T03:45:34;21.60;92.20
39675;DHT22;27790;50.840;4.386;2023-06-22T03:48:01;21.70;92.30
39675;DHT22;27790;50.840;4.386;2023-06-22T03:50:27;21.80;92.30
39675;DHT22;27790;50.840;4.386;2023-06-22T03:52:52;21.80;92.10
39675;DHT22;27790;50.840;4.386;2023-06-22T03:55:21;21.80;92.20
39675;DHT22;27790;50.840;4.386;2023-06-22T03:57:46;21.80;92.10
39675;DHT22;27790;50.840;4.386;2023-06-22T04:00:12;21.80;92.20
39675;DHT22;27790;50.840;4.386;2023-06-22T04:02:38;21.70;92.30
39675;DHT22;27790;50.840;4.386;2023-06-22T04:05:04;21.80;92.30
39675;DHT22;27790;50.840;4.386;2023-06-22T04:07:30;21.80;92.30
39675;DHT22;27790;50.840;4.386;2023-06-22T04:09:56;21.70;92.40
39675;DHT22;27790;50.840;4.386;2023-06-22T04:12:23;21.70;92.50
39675;DHT22;27790;50.840;4.386;2023-06-22T04:14:48;21.80;92.50
39675;DHT22;27790;50.840;4.386;2023-06-22T04:17:14;21.90;92.50
39675;DHT22;27790;50.840;4.386;2023-06-22T04:19:40;21.90;92.40
39675;DHT22;27790;50.840;4.386;2023-06-22T04:22:06;21.90;92.60
39675;DHT22;27790;50.840;4.386;2023-06-22T04:24:33;21.80;92.80
39675;DHT22;27790;50.840;4.386;2023-06-22T04:26:59;21.80;92.80
39675;DHT22;27790;50.840;4.386;2023-06-22T04:29:29;21.90;93.00
39675;DHT22;27790;50.840;4.386;2023-06-22T04:31:58;21.90;92.90
39675;DHT22;27790;50.840;4.386;2023-06-22T04:34:28;21.90;93.20
39675;DHT22;27790;50.840;4.386;2023-06-22T04:36:54;21.90;93.10
39675;DHT22;27790;50.840;4.386;2023-06-22T04:39:20;22.00;93.10
39675;DHT22;27790;50.840;4.386;2023-06-22T04:41:46;22.00;93.10
39675;DHT22;27790;50.840;4.386;2023-06-22T04:44:16;22.00;93.00
39675;DHT22;27790;50.840;4.386;2023-06-22T04:46:50;22.10;93.00
39675;DHT22;27790;50.840;4.386;2023-06-22T04:49:20;22.10;92.90
39675;DHT22;27790;50.840;4.386;2023-06-22T04:51:46;22.10;92.90
39675;DHT22;27790;50.840;4.386;2023-06-22T04:54:11;22.00;93.10
39675;DHT22;27790;50.840;4.386;2023-06-22T04:56:37;22.00;93.30
39675;DHT22;27790;50.840;4.386;2023-06-22T04:59:07;22.00;93.30
39675;DHT22;27790;50.840;4.386;2023-06-22T05:01:33;22.00;93.30
39675;DHT22;27790;50.840;4.386;2023-06-22T05:04:00;21.90;93.50
39675;DHT22;27790;50.840;4.386;2023-06-22T05:06:27;22.00;93.70
39675;DHT22;27790;50.840;4.386;2023-06-22T05:08:54;22.00;93.60
39675;DHT22;27790;50.840;4.386;2023-06-22T05:11:32;22.10;93.70
39675;DHT22;27790;50.840;4.386;2023-06-22T05:13:57;22.20;93.60
39675;DHT22;27790;50.840;4.386;2023-06-22T05:16:23;22.30;94.00
39675;DHT22;27790;50.840;4.386;2023-06-22T05:18:53;22.30;94.80
39675;DHT22;27790;50.840;4.386;2023-06-22T05:21:23;22.30;95.40
39675;DHT22;27790;50.840;4.386;2023-06-22T05:23:50;22.30;95.90
39675;DHT22;27790;50.840;4.386;2023-06-22T05:26:15;22.30;95.80
39675;DHT22;27790;50.840;4.386;2023-06-22T05:28:41;22.30;95.90
39675;DHT22;27790;50.840;4.386;2023-06-22T05:31:07;22.30;96.70
39675;DHT22;27790;50.840;4.386;2023-06-22T05:33:32;22.30;97.20
39675;DHT22;27790;50.840;4.386;2023-06-22T05:35:58;22.30;96.10
39675;DHT22;27790;50.840;4.386;2023-06-22T05:38:24;22.20;96.50
39675;DHT22;27790;50.840;4.386;2023-06-22T05:40:49;22.10;96.80
39675;DHT22;27790;50.840;4.386;2023-06-22T05:43:15;22.00;97.30
39675;DHT22;27790;50.840;4.386;2023-06-22T05:45:41;22.00;98.00
39675;DHT22;27790;50.840;4.386;2023-06-22T05:48:06;22.00;98.10
39675;DHT22;27790;50.840;4.386;2023-06-22T05:50:32;22.00;97.50
39675;DHT22;27790;50.840;4.386;2023-06-22T05:52:58;21.80;97.80
39675;DHT22;27790;50.840;4.386;2023-06-22T05:55:23;21.90;98.80
39675;DHT22;27790;50.840;4.386;2023-06-22T05:57:49;21.80;99.00
39675;DHT22;27790;50.840;4.386;2023-06-22T06:00:15;21.80;98.20
39675;DHT22;27790;50.840;4.386;2023-06-22T06:02:40;21.60;98.40
39675;DHT22;27790;50.840;4.386;2023-06-22T06:05:12;21.60;98.90
39675;DHT22;27790;50.840;4.386;2023-06-22T06:07:44;21.70;99.00
39675;DHT22;27790;50.840;4.386;2023-06-22T06:10:10;21.80;99.60
39675;DHT22;27790;50.840;4.386;2023-06-22T06:12:35;21.80;99.90
39675;DHT22;27790;50.840;4.386;2023-06-22T06:15:02;21.90;99.90
39675;DHT22;27790;50.840;4.386;2023-06-22T06:17:28;21.90;99.90
39675;DHT22;27790;50.840;4.386;2023-06-22T06:19:53;21.90;99.90
39675;DHT22;27790;50.840;4.386;2023-06-22T06:22:19;21.80;99.40
39675;DHT22;27790;50.840;4.386;2023-06-22T06:24:47;21.80;99.60
39675;DHT22;27790;50.840;4.386;2023-06-22T06:27:13;21.90;99.90
39675;DHT22;27790;50.840;4.386;2023-06-22T06:29:39;22.00;99.70
39675;DHT22;27790;50.840;4.386;2023-06-22T06:32:05;22.00;99.40
39675;DHT22;27790;50.840;4.386;2023-06-22T06:34:31;22.10;99.50
39675;DHT22;27790;50.840;4.386;2023-06-22T06:36:56;22.30;99.10
39675;DHT22;27790;50.840;4.386;2023-06-22T06:39:22;22.40;99.40
39675;DHT22;27790;50.840;4.386;2023-06-22T06:41:47;22.50;98.60
39675;DHT22;27790;50.840;4.386;2023-06-22T06:44:13;22.50;98.10
39675;DHT22;27790;50.840;4.386;2023-06-22T06:46:39;22.50;98.00
39675;DHT22;27790;50.840;4.386;2023-06-22T06:49:04;22.60;97.80
39675;DHT22;27790;50.840;4.386;2023-06-22T06:51:30;22.60;97.70
39675;DHT22;27790;50.840;4.386;2023-06-22T06:53:56;22.60;97.70
39675;DHT22;27790;50.840;4.386;2023-06-22T06:56:21;22.70;97.80
39675;DHT22;27790;50.840;4.386;2023-06-22T06:58:49;22.60;97.70
39675;DHT22;27790;50.840;4.386;2023-06-22T07:01:15;22.60;97.30
39675;DHT22;27790;50.840;4.386;2023-06-22T07:03:40;22.60;97.60
39675;DHT22;27790;50.840;4.386;2023-06-22T07:06:06;22.60;97.40
39675;DHT22;27790;50.840;4.386;2023-06-22T07:08:32;22.60;97.60
39675;DHT22;27790;50.840;4.386;2023-06-22T07:10:57;22.70;97.80
39675;DHT22;27790;50.840;4.386;2023-06-22T07:13:23;22.70;97.80
39675;DHT22;27790;50.840;4.386;2023-06-22T07:15:49;22.60;97.70
39675;DHT22;27790;50.840;4.386;2023-06-22T07:18:14;22.50;97.70
39675;DHT22;27790;50.840;4.386;2023-06-22T07:20:40;22.30;98.10
39675;DHT22;27790;50.840;4.386;2023-06-22T07:23:06;22.30;98.30
39675;DHT22;27790;50.840;4.386;2023-06-22T07:25:32;22.50;98.30
39675;DHT22;27790;50.840;4.386;2023-06-22T07:27:58;22.70;97.80
39675;DHT22;27790;50.840;4.386;2023-06-22T07:30:24;22.80;97.40
39675;DHT22;27790;50.840;4.386;2023-06-22T07:32:51;23.10;97.10
39675;DHT22;27790;50.840;4.386;2023-06-22T07:35:17;23.00;96.90
39675;DHT22;27790;50.840;4.386;2023-06-22T07:37:42;22.90;96.50
39675;DHT22;27790;50.840;4.386;2023-06-22T07:40:09;22.90;96.60
39675;DHT22;27790;50.840;4.386;2023-06-22T07:42:35;22.90;96.80
39675;DHT22;27790;50.840;4.386;2023-06-22T07:45:02;22.70;96.90
39675;DHT22;27790;50.840;4.386;2023-06-22T07:47:28;22.60;97.20
39675;DHT22;27790;50.840;4.386;2023-06-22T07:49:58;22.70;97.10
39675;DHT22;27790;50.840;4.386;2023-06-22T07:52:26;22.80;97.00
39675;DHT22;27790;50.840;4.386;2023-06-22T07:54:52;22.90;96.80
39675;DHT22;27790;50.840;4.386;2023-06-22T07:57:18;22.90;96.70
39675;DHT22;27790;50.840;4.386;2023-06-22T07:59:44;23.00;96.60
39675;DHT22;27790;50.840;4.386;2023-06-22T08:02:09;22.80;96.50
39675;DHT22;27790;50.840;4.386;2023-06-22T08:04:35;22.70;96.70
39675;DHT22;27790;50.840;4.386;2023-06-22T08:07:04;22.80;96.90
39675;DHT22;27790;50.840;4.386;2023-06-22T08:09:31;22.90;96.80
39675;DHT22;27790;50.840;4.386;2023-06-22T08:11:58;23.00;96.40
39675;DHT22;27790;50.840;4.386;2023-06-22T08:14:27;23.00;96.50
39675;DHT22;27790;50.840;4.386;2023-06-22T08:16:53;23.00;96.50
39675;DHT22;27790;50.840;4.386;2023-06-22T08:19:18;22.90;96.70
39675;DHT22;27790;50.840;4.386;2023-06-22T08:21:44;22.90;96.90
39675;DHT22;27790;50.840;4.386;2023-06-22T08:24:10;22.90;96.60
39675;DHT22;27790;50.840;4.386;2023-06-22T08:26:35;22.90;96.90
39675;DHT22;27790;50.840;4.386;2023-06-22T08:29:03;22.80;96.70
39675;DHT22;27790;50.840;4.386;2023-06-22T08:31:29;22.80;96.80
39675;DHT22;27790;50.840;4.386;2023-06-22T08:33:55;22.80;96.80
39675;DHT22;27790;50.840;4.386;2023-06-22T08:36:20;22.70;97.20
39675;DHT22;27790;50.840;4.386;2023-06-22T08:38:46;22.70;97.00
39675;DHT22;27790;50.840;4.386;2023-06-22T08:41:15;22.70;97.20
39675;DHT22;27790;50.840;4.386;2023-06-22T08:43:41;22.70;97.50
39675;DHT22;27790;50.840;4.386;2023-06-22T08:46:08;22.90;97.80
39675;DHT22;27790;50.840;4.386;2023-06-22T08:48:34;22.90;97.10
39675;DHT22;27790;50.840;4.386;2023-06-22T08:50:59;22.90;97.40
39675;DHT22;27790;50.840;4.386;2023-06-22T08:53:25;23.00;97.00
39675;DHT22;27790;50.840;4.386;2023-06-22T08:55:50;22.90;96.90
39675;DHT22;27790;50.840;4.386;2023-06-22T08:58:16;22.90;97.10
39675;DHT22;27790;50.840;4.386;2023-06-22T09:00:42;22.90;97.00
39675;DHT22;27790;50.840;4.386;2023-06-22T09:03:07;22.90;97.10
39675;DHT22;27790;50.840;4.386;2023-06-22T09:05:33;22.90;96.90
39675;DHT22;27790;50.840;4.386;2023-06-22T09:07:58;22.90;96.80
39675;DHT22;27790;50.840;4.386;2023-06-22T09:10:25;22.90;96.80
39675;DHT22;27790;50.840;4.386;2023-06-22T09:12:51;22.80;96.50
39675;DHT22;27790;50.840;4.386;2023-06-22T09:15:16;22.70;97.00
39675;DHT22;27790;50.840;4.386;2023-06-22T09:17:42;22.70;96.90
39675;DHT22;27790;50.840;4.386;2023-06-22T09:20:09;22.70;96.70
39675;DHT22;27790;50.840;4.386;2023-06-22T09:22:36;22.70;96.60
39675;DHT22;27790;50.840;4.386;2023-06-22T09:25:02;22.70;96.70
39675;DHT22;27790;50.840;4.386;2023-06-22T09:27:28;22.70;96.70
39675;DHT22;27790;50.840;4.386;2023-06-22T09:29:54;22.50;97.20
39675;DHT22;27790;50.840;4.386;2023-06-22T09:32:22;22.30;97.50
39675;DHT22;27790;50.840;4.386;2023-06-22T09:34:48;22.20;97.70
39675;DHT22;27790;50.840;4.386;2023-06-22T09:37:14;22.30;97.80
39675;DHT22;27790;50.840;4.386;2023-06-22T09:39:39;22.30;97.80
39675;DHT22;27790;50.840;4.386;2023-06-22T09:42:05;22.20;98.20
39675;DHT22;27790;50.840;4.386;2023-06-22T09:44:31;22.10;99.70
39675;DHT22;27790;50.840;4.386;2023-06-22T09:46:57;21.90;99.90
39675;DHT22;27790;50.840;4.386;2023-06-22T09:49:23;21.70;99.90
39675;DHT22;27790;50.840;4.386;2023-06-22T09:51:48;21.60;99.90
39675;DHT22;27790;50.840;4.386;2023-06-22T09:54:16;21.40;99.90
39675;DHT22;27790;50.840;4.386;2023-06-22T09:56:42;21.30;99.90
39675;DHT22;27790;50.840;4.386;2023-06-22T09:59:07;21.00;99.90
39675;DHT22;27790;50.840;4.386;2023-06-22T10:01:33;20.60;99.90
39675;DHT22;27790;50.840;4.386;2023-06-22T10:03:58;20.10;99.90
39675;DHT22;27790;50.840;4.386;2023-06-22T10:06:24;19.90;99.90
39675;DHT22;27790;50.840;4.386;2023-06-22T10:08:51;19.50;99.90
39675;DHT22;27790;50.840;4.386;2023-06-22T10:11:17;19.30;99.90
39675;DHT22;27790;50.840;4.386;2023-06-22T10:13:42;19.20;99.90
39675;DHT22;27790;50.840;4.386;2023-06-22T10:16:08;19.10;99.90
39675;DHT22;27790;50.840;4.386;2023-06-22T10:18:34;19.10;99.90
39675;DHT22;27790;50.840;4.386;2023-06-22T10:21:00;19.10;99.90
39675;DHT22;27790;50.840;4.386;2023-06-22T10:23:25;19.20;99.90
39675;DHT22;27790;50.840;4.386;2023-06-22T10:25:51;19.10;99.90
39675;DHT22;27790;50.840;4.386;2023-06-22T10:28:17;19.20;99.90
39675;DHT22;27790;50.840;4.386;2023-06-22T10:30:43;19.30;99.90
39675;DHT22;27790;50.840;4.386;2023-06-22T10:33:09;19.40;99.90
39675;DHT22;27790;50.840;4.386;2023-06-22T10:35:35;19.40;99.90
39675;DHT22;27790;50.840;4.386;2023-06-22T10:38:03;19.50;99.90
39675;DHT22;27790;50.840;4.386;2023-06-22T10:40:29;19.50;99.90
39675;DHT22;27790;50.840;4.386;2023-06-22T10:42:55;19.60;99.90
39675;DHT22;27790;50.840;4.386;2023-06-22T10:45:20;19.60;99.90
39675;DHT22;27790;50.840;4.386;2023-06-22T10:47:46;19.40;99.90
39675;DHT22;27790;50.840;4.386;2023-06-22T10:50:12;19.40;99.90
39675;DHT22;27790;50.840;4.386;2023-06-22T10:52:38;19.40;99.90
39675;DHT22;27790;50.840;4.386;2023-06-22T10:55:04;19.50;99.90
39675;DHT22;27790;50.840;4.386;2023-06-22T10:57:30;19.60;99.90
39675;DHT22;27790;50.840;4.386;2023-06-22T10:59:55;19.60;99.90
39675;DHT22;27790;50.840;4.386;2023-06-22T11:02:21;19.70;99.90
39675;DHT22;27790;50.840;4.386;2023-06-22T11:04:46;19.80;99.90
39675;DHT22;27790;50.840;4.386;2023-06-22T11:07:13;19.80;99.90
39675;DHT22;27790;50.840;4.386;2023-06-22T11:09:39;19.90;99.90
39675;DHT22;27790;50.840;4.386;2023-06-22T11:12:05;20.10;99.90
39675;DHT22;27790;50.840;4.386;2023-06-22T11:14:31;20.20;99.90
39675;DHT22;27790;50.840;4.386;2023-06-22T11:16:59;20.30;99.90
39675;DHT22;27790;50.840;4.386;2023-06-22T11:19:24;20.50;99.90
39675;DHT22;27790;50.840;4.386;2023-06-22T11:21:50;20.60;99.90
39675;DHT22;27790;50.840;4.386;2023-06-22T11:24:16;20.70;99.90
39675;DHT22;27790;50.840;4.386;2023-06-22T11:26:42;20.60;99.90
39675;DHT22;27790;50.840;4.386;2023-06-22T11:29:08;20.70;99.90
39675;DHT22;27790;50.840;4.386;2023-06-22T11:31:34;20.80;99.90
39675;DHT22;27790;50.840;4.386;2023-06-22T11:34:00;20.80;99.90
39675;DHT22;27790;50.840;4.386;2023-06-22T11:36:26;20.70;99.90
39675;DHT22;27790;50.840;4.386;2023-06-22T11:38:52;20.80;99.90
39675;DHT22;27790;50.840;4.386;2023-06-22T11:41:18;20.90;99.90
39675;DHT22;27790;50.840;4.386;2023-06-22T11:43:44;21.00;99.90
39675;DHT22;27790;50.840;4.386;2023-06-22T11:46:10;21.10;99.90
39675;DHT22;27790;50.840;4.386;2023-06-22T11:48:35;21.20;99.90
39675;DHT22;27790;50.840;4.386;2023-06-22T11:51:01;21.20;99.90
39675;DHT22;27790;50.840;4.386;2023-06-22T11:53:28;21.20;99.90
39675;DHT22;27790;50.840;4.386;2023-06-22T11:55:54;21.20;99.90
39675;DHT22;27790;50.840;4.386;2023-06-22T11:58:21;21.20;99.90
39675;DHT22;27790;50.840;4.386;2023-06-22T12:00:46;21.20;99.90
39675;DHT22;27790;50.840;4.386;2023-06-22T12:03:12;21.20;99.90
39675;DHT22;27790;50.840;4.386;2023-06-22T12:05:40;21.20;99.90
39675;DHT22;27790;50.840;4.386;2023-06-22T12:08:06;21.10;99.90
39675;DHT22;27790;50.840;4.386;2023-06-22T12:10:32;21.20;99.90
39675;DHT22;27790;50.840;4.386;2023-06-22T12:12:57;21.20;99.90
39675;DHT22;27790;50.840;4.386;2023-06-22T12:15:26;21.20;99.90
39675;DHT22;27790;50.840;4.386;2023-06-22T12:17:51;21.10;99.90
39675;DHT22;27790;50.840;4.386;2023-06-22T12:20:17;21.10;99.90
39675;DHT22;27790;50.840;4.386;2023-06-22T12:22:43;21.10;99.90
39675;DHT22;27790;50.840;4.386;2023-06-22T12:25:09;21.10;99.90
39675;DHT22;27790;50.840;4.386;2023-06-22T12:27:35;21.00;99.90
39675;DHT22;27790;50.840;4.386;2023-06-22T12:30:01;21.10;99.90
39675;DHT22;27790;50.840;4.386;2023-06-22T12:32:27;21.10;99.90
39675;DHT22;27790;50.840;4.386;2023-06-22T12:34:53;21.00;99.90
39675;DHT22;27790;50.840;4.386;2023-06-22T12:37:18;21.10;99.90
39675;DHT22;27790;50.840;4.386;2023-06-22T12:39:44;21.20;99.90
39675;DHT22;27790;50.840;4.386;2023-06-22T12:42:10;21.20;99.90
39675;DHT22;27790;50.840;4.386;2023-06-22T12:44:38;21.20;99.90
39675;DHT22;27790;50.840;4.386;2023-06-22T12:47:05;20.90;99.90
39675;DHT22;27790;50.840;4.386;2023-06-22T12:49:31;20.70;99.90
39675;DHT22;27790;50.840;4.386;2023-06-22T12:51:56;20.50;99.90
39675;DHT22;27790;50.840;4.386;2023-06-22T12:54:22;20.30;99.90
39675;DHT22;27790;50.840;4.386;2023-06-22T12:56:49;20.20;99.90
39675;DHT22;27790;50.840;4.386;2023-06-22T12:59:15;20.00;99.90
39675;DHT22;27790;50.840;4.386;2023-06-22T13:01:42;20.00;99.90
39675;DHT22;27790;50.840;4.386;2023-06-22T13:04:09;20.00;99.90
39675;DHT22;27790;50.840;4.386;2023-06-22T13:06:36;20.00;99.90
39675;DHT22;27790;50.840;4.386;2023-06-22T13:09:02;19.90;99.90
39675;DHT22;27790;50.840;4.386;2023-06-22T13:11:30;19.80;99.90
39675;DHT22;27790;50.840;4.386;2023-06-22T13:13:56;19.90;99.90
39675;DHT22;27790;50.840;4.386;2023-06-22T13:16:21;19.90;99.90
39675;DHT22;27790;50.840;4.386;2023-06-22T13:18:47;19.80;99.90
39675;DHT22;27790;50.840;4.386;2023-06-22T13:21:12;19.80;99.90
39675;DHT22;27790;50.840;4.386;2023-06-22T13:23:39;19.80;99.90
39675;DHT22;27790;50.840;4.386;2023-06-22T13:26:05;19.90;99.90
39675;DHT22;27790;50.840;4.386;2023-06-22T13:28:30;20.00;99.90
39675;DHT22;27790;50.840;4.386;2023-06-22T13:30:56;20.00;99.90
39675;DHT22;27790;50.840;4.386;2023-06-22T13:33:21;20.00;99.90
39675;DHT22;27790;50.840;4.386;2023-06-22T13:35:47;20.00;99.90
39675;DHT22;27790;50.840;4.386;2023-06-22T13:38:12;19.90;99.90
39675;DHT22;27790;50.840;4.386;2023-06-22T13:40:38;19.80;99.90
39675;DHT22;27790;50.840;4.386;2023-06-22T13:43:04;19.60;99.90
39675;DHT22;27790;50.840;4.386;2023-06-22T13:45:31;19.50;99.90
39675;DHT22;27790;50.840;4.386;2023-06-22T13:47:57;19.40;99.90
39675;DHT22;27790;50.840;4.386;2023-06-22T13:50:22;19.40;99.90
39675;DHT22;27790;50.840;4.386;2023-06-22T13:52:48;19.40;99.90
39675;DHT22;27790;50.840;4.386;2023-06-22T13:55:14;19.40;99.90
39675;DHT22;27790;50.840;4.386;2023-06-22T13:57:40;19.40;99.90
39675;DHT22;27790;50.840;4.386;2023-06-22T14:00:07;19.40;99.90
39675;DHT22;27790;50.840;4.386;2023-06-22T14:02:38;19.30;99.90
39675;DHT22;27790;50.840;4.386;2023-06-22T14:05:04;19.30;99.90
39675;DHT22;27790;50.840;4.386;2023-06-22T14:07:29;19.40;99.90
39675;DHT22;27790;50.840;4.386;2023-06-22T14:09:55;19.30;99.90
39675;DHT22;27790;50.840;4.386;2023-06-22T14:12:20;19.30;99.90
39675;DHT22;27790;50.840;4.386;2023-06-22T14:14:46;19.20;99.90
39675;DHT22;27790;50.840;4.386;2023-06-22T14:17:12;19.30;99.90
39675;DHT22;27790;50.840;4.386;2023-06-22T14:19:37;19.40;99.90
39675;DHT22;27790;50.840;4.386;2023-06-22T14:22:03;19.50;99.90
39675;DHT22;27790;50.840;4.386;2023-06-22T14:24:29;19.60;99.90
39675;DHT22;27790;50.840;4.386;2023-06-22T14:26:55;19.50;99.90
39675;DHT22;27790;50.840;4.386;2023-06-22T14:29:21;19.50;99.90
39675;DHT22;27790;50.840;4.386;2023-06-22T14:31:48;19.30;99.90
39675;DHT22;27790;50.840;4.386;2023-06-22T14:34:14;19.30;99.90
39675;DHT22;27790;50.840;4.386;2023-06-22T14:36:41;19.20;99.90
39675;DHT22;27790;50.840;4.386;2023-06-22T14:39:06;19.10;99.90
39675;DHT22;27790;50.840;4.386;2023-06-22T14:41:32;19.10;99.90
39675;DHT22;27790;50.840;4.386;2023-06-22T14:43:58;19.10;99.90
39675;DHT22;27790;50.840;4.386;2023-06-22T14:46:24;19.00;99.90
39675;DHT22;27790;50.840;4.386;2023-06-22T14:48:49;19.00;99.90
39675;DHT22;27790;50.840;4.386;2023-06-22T14:51:15;19.10;99.90
39675;DHT22;27790;50.840;4.386;2023-06-22T14:53:43;19.10;99.90
39675;DHT22;27790;50.840;4.386;2023-06-22T14:56:09;19.20;99.90
39675;DHT22;27790;50.840;4.386;2023-06-22T14:58:34;19.10;99.90
39675;DHT22;27790;50.840;4.386;2023-06-22T15:01:04;19.10;99.90
39675;DHT22;27790;50.840;4.386;2023-06-22T15:03:31;19.20;99.90
39675;DHT22;27790;50.840;4.386;2023-06-22T15:05:58;19.20;99.90
39675;DHT22;27790;50.840;4.386;2023-06-22T15:08:24;19.30;99.90
39675;DHT22;27790;50.840;4.386;2023-06-22T15:10:51;19.30;99.90
39675;DHT22;27790;50.840;4.386;2023-06-22T15:13:17;19.30;99.90
39675;DHT22;27790;50.840;4.386;2023-06-22T15:15:43;19.40;99.90
39675;DHT22;27790;50.840;4.386;2023-06-22T15:18:09;19.40;99.90
39675;DHT22;27790;50.840;4.386;2023-06-22T15:20:34;19.50;99.90
39675;DHT22;27790;50.840;4.386;2023-06-22T15:23:00;19.50;99.90
39675;DHT22;27790;50.840;4.386;2023-06-22T15:25:26;19.50;99.90
39675;DHT22;27790;50.840;4.386;2023-06-22T15:27:51;19.60;99.90
39675;DHT22;27790;50.840;4.386;2023-06-22T15:30:17;19.60;99.90